aviador You're here:

DIAP Decoded Metar

ABIDJAN in IVORY COAST
Report Time2018-01-19 05:00:00
UTC Time2018-01-19 05:23:21
Flight Rules mvfr MVFR
Wind250° at 04 kt
W.Decomp.*RWY 21: 2.8 kt HW 2.8 kt RCW
W.Rank250° ranks 5
Current wind is below 250° avg. (5.8)
Visibility7000 m
Phenomena:N/A
Clouds:Few 012 Hf
Expected CloudBase > 400 ft AGL from Temp-Dew spread
CeilingNone
Temp26°C (ISA +11)
Dew Point25°C (94% RH)
QNH1010 hPa
Density Alt1,818 ft
Elevation26 ft
Report Wrong Elevation
Raw Report
METAR DIAP 190500Z 25004KT 7000 FEW012 26/25 Q1010 NOSIG=

Extra information for DIAP:More info

Metar Taf Metar & Taf Last 4 Metars F.Rules Stats Wind Profile Meteogram Temp Stats Airport Information Weather charts Add Link Nearby VenuesMetar ALERT Operation Metar Decoded Social comments